San Juan La Mana, Ecuador

6:53 AM ECT on December 05, 2016 (GMT -0500)
Cotopaxi International | | Change Station

Elev 9137 ft 0.91 °S, 78.62 °W | Updated 53 minutes ago

Mostly Cloudy
Mostly Cloudy
50 °F
Feels Like 50 °F
N
2
Wind Variable Wind from ESE

Today
High -- | Low -- °F
--% Chance of Precip.
Yesterday
High -- | Low -- °F
Precip. -- in
Pressure 30.39 in
Visibility 6.2 miles
Clouds Few 1300 ft
Mostly Cloudy 2600 ft
Dew Point 50 °F
Humidity 100%
Rainfall 0.00 in
Snow Depth Not available.
6:00 AM 6:10 PM
Waxing Crescent, 31% visible
METAR SELT 051100Z 11002KT 9999 FEW013 BKN026 10/10 Q1029
Pressure 30.39 in
Visibility 6.2 miles
Clouds Few 1300 ft
Mostly Cloudy 2600 ft
Dew Point 50 °F
Humidity 100%
Rainfall 0.00 in
Snow Depth Not available.
6:00 AM 6:10 PM
Waxing Crescent, 31% visible
METAR SELT 051100Z 11002KT 9999 FEW013 BKN026 10/10 Q1029

10-Day Weather Forecast

No radar image for this location.
×

Almanac

Astronomy

Dec. 05, 2016 Rise Set
Actual Time
Civil Twilight
Nautical Twilight
Astronomical Twilight
Moon
Length of Visible Light
Length of Day
Tomorrow will be .
, % of the Moon is Illuminated

Today's Extremes

Country Highs Country Lows

Community

WunderPhotos

Upload Photos

1,955,775 photos uploaded!

WunderBlog® & News

Nearby

Air Quality

  Air Quality AQ Index Pollutant
Not available.

Snow Depth

Station Depth Elevation

Earthquake Activity

City Distance Mag. Time & Date
Minimum magnitude displayed is 2.5.

Coastal Water Temperatures

Place Temperature

Stations

Nearby Weather Stations

Station Location Temp. Windchill Dew Point Humidity Wind Precip. Elev Updated Type